Terminal Aerodrome Forecast
Issued by NWS Goodland, KS

Home | Current Version | Previous Version | Text Only | Print | Product List | Glossary On
Versions: 1 2 3 4 5 6 7 8 9 10 11 12 13 14 15 16 17 18 19
000
FTUS43 KGLD 252339
TAFGLD
TAF
KGLD 252339Z 2600/2624 VRB05KT P6SM SCT250
     FM260100 12008KT P6SM BKN250
     FM260600 14008KT 5SM BR BKN050
     FM260700 15008KT P6SM BKN015
     FM260800 14008KT P6SM BKN008
     FM261100 11007KT P6SM BKN005
     FM261200 12008KT P6SM BKN003=

USA.gov is the U.S. government's official web portal to all federal, state and local government web resources and services.